Time;durP1;ratioP1;P1;durP2;ratioP2;P2;SDS_P1;SDS_P2;PMS_P1;PMS_P2;Temp;Humidity;BMP_temperature;BMP_pressure;BME280_temperature;BME280_humidity;BME280_pressure;Samples;Min_cycle;Max_cycle;Signal;HPM_P1;HPM_P2
2023/03/18 00:00:45;;;;;;;23.90;4.72;;;10.40;99.90;;;;;;4819614;29;20055;-58
2023/03/18 00:03:13;;;;;;;14.77;3.67;;;10.50;99.90;;;;;;4814796;29;20058;-57
2023/03/18 00:05:40;;;;;;;17.88;3.47;;;10.40;99.90;;;;;;4816129;29;20054;-59
2023/03/18 00:08:09;;;;;;;20.92;3.30;;;10.40;99.90;;;;;;4810016;29;20058;-60
2023/03/18 00:10:38;;;;;;;15.77;3.83;;;10.40;99.90;;;;;;4819866;29;20047;-58
2023/03/18 00:13:06;;;;;;;18.40;4.05;;;10.40;99.90;;;;;;4814259;29;20057;-57
2023/03/18 00:15:34;;;;;;;18.35;3.67;;;;;;;;;;4815724;29;20054;-56
2023/03/18 00:18:01;;;;;;;19.60;3.65;;;10.40;99.90;;;;;;4815563;29;20054;-57
2023/03/18 00:20:39;;;;;;;20.20;3.58;;;10.40;99.90;;;;;;4811185;29;20130;-57
2023/03/18 00:23:08;;;;;;;17.83;3.97;;;10.40;99.90;;;;;;4804526;29;20061;-57
2023/03/18 00:25:37;;;;;;;20.27;4.80;;;10.40;99.90;;;;;;4814183;29;20406;-57
2023/03/18 00:28:06;;;;;;;18.45;4.60;;;10.40;99.90;;;;;;4816310;29;20041;-57
2023/03/18 00:30:38;;;;;;;22.52;5.53;;;10.40;99.90;;;;;;4837132;29;20057;-57
2023/03/18 00:33:06;;;;;;;18.70;3.95;;;;;;;;;;4815323;29;20046;-58
2023/03/18 00:35:35;;;;;;;17.15;4.00;;;10.50;99.90;;;;;;4823171;29;20051;-56
2023/03/18 00:38:06;;;;;;;13.45;3.63;;;10.40;99.90;;;;;;4818821;29;20057;-57
2023/03/18 00:40:52;;;;;;;14.57;3.95;;;10.50;99.90;;;;;;4822876;29;20049;-58
2023/03/18 00:43:28;;;;;;;18.75;5.07;;;10.40;99.90;;;;;;4816203;29;20039;-56
2023/03/18 00:45:57;;;;;;;21.08;3.60;;;10.50;99.90;;;;;;4813186;29;20047;-58
2023/03/18 00:48:25;;;;;;;23.88;4.78;;;10.50;99.90;;;;;;4815099;29;20047;-58
2023/03/18 00:50:53;;;;;;;19.20;4.32;;;10.50;99.90;;;;;;4806769;29;20042;-59
2023/03/18 00:53:22;;;;;;;14.82;3.92;;;10.50;99.90;;;;;;4815702;29;20047;-57
2023/03/18 00:55:51;;;;;;;17.38;3.80;;;10.50;99.90;;;;;;4817148;29;20050;-57
2023/03/18 00:58:19;;;;;;;17.17;4.00;;;10.50;99.90;;;;;;4814430;29;20045;-56
2023/03/18 01:00:47;;;;;;;19.27;4.00;;;10.50;99.90;;;;;;4807551;29;20415;-56
2023/03/18 01:03:16;;;;;;;17.88;4.10;;;;;;;;;;4815242;29;20050;-56
2023/03/18 01:05:44;;;;;;;14.88;3.72;;;10.50;99.90;;;;;;4831133;29;20054;-58
2023/03/18 01:08:11;;;;;;;13.93;3.92;;;10.50;99.90;;;;;;4826242;29;20054;-58
2023/03/18 01:10:39;;;;;;;14.68;3.72;;;10.50;99.90;;;;;;4831205;29;20077;-58
2023/03/18 01:13:09;;;;;;;24.25;3.88;;;10.50;99.90;;;;;;4816380;29;20050;-59
2023/03/18 01:15:36;;;;;;;16.08;3.55;;;10.40;99.90;;;;;;4825739;29;20057;-58
2023/03/18 01:18:04;;;;;;;16.25;5.28;;;10.50;99.90;;;;;;4821991;29;20057;-57
2023/03/18 01:20:32;;;;;;;20.67;4.45;;;10.50;99.90;;;;;;4817277;29;20046;-56
2023/03/18 01:23:01;;;;;;;14.60;3.33;;;10.50;99.90;;;;;;4813181;29;20065;-57
2023/03/18 01:25:29;;;;;;;25.98;5.18;;;10.50;99.90;;;;;;4822997;29;20045;-57
2023/03/18 01:27:57;;;;;;;13.63;3.88;;;10.50;99.90;;;;;;4813709;29;20046;-56
2023/03/18 01:30:25;;;;;;;19.13;3.92;;;10.50;99.90;;;;;;4815281;29;20046;-59
2023/03/18 01:32:54;;;;;;;23.88;3.60;;;10.50;99.90;;;;;;4808212;29;20129;-58
2023/03/18 01:35:24;;;;;;;15.15;3.10;;;10.50;99.90;;;;;;4832495;29;20061;-57
2023/03/18 01:37:52;;;;;;;16.73;3.38;;;10.50;99.90;;;;;;4826200;29;20053;-57
2023/03/18 01:40:21;;;;;;;18.50;4.15;;;10.50;99.90;;;;;;4812545;29;20043;-57
2023/03/18 01:43:06;;;;;;;12.27;3.00;;;10.40;99.90;;;;;;4818681;29;20038;-56
2023/03/18 01:45:35;;;;;;;16.90;4.32;;;10.40;99.90;;;;;;4820369;29;20470;-57
2023/03/18 01:48:03;;;;;;;20.52;4.25;;;10.50;99.90;;;;;;4825511;29;20041;-57
2023/03/18 01:50:34;;;;;;;20.38;4.68;;;10.40;99.90;;;;;;4818265;29;20050;-57
2023/03/18 01:53:07;;;;;;;16.88;4.20;;;10.40;99.90;;;;;;4812348;29;20260;-57
2023/03/18 01:55:36;;;;;;;19.92;4.07;;;10.40;99.90;;;;;;4815934;29;20050;-56
2023/03/18 01:58:36;;;;;;;18.90;4.22;;;10.40;99.90;;;;;;4810507;29;20345;-58
2023/03/18 02:01:38;;;;;;;11.57;3.95;;;10.30;99.90;;;;;;4803407;29;20070;-58
2023/03/18 02:04:09;;;;;;;11.23;4.05;;;10.30;99.90;;;;;;4828223;29;20068;-58
2023/03/18 02:06:39;;;;;;;16.92;3.72;;;10.30;99.90;;;;;;4816853;29;20046;-57
2023/03/18 02:09:08;;;;;;;19.38;4.78;;;10.30;99.90;;;;;;4826324;29;20057;-57
2023/03/18 02:11:41;;;;;;;11.48;4.28;;;10.30;99.90;;;;;;4825538;29;20484;-56
2023/03/18 02:14:12;;;;;;;17.27;4.60;;;10.30;99.90;;;;;;4818614;29;20057;-58
2023/03/18 02:16:45;;;;;;;13.15;4.20;;;10.30;99.90;;;;;;4801616;29;20059;-59
2023/03/18 02:19:41;;;;;;;19.42;4.80;;;10.30;99.90;;;;;;4827392;29;20046;-58
2023/03/18 02:22:27;;;;;;;19.60;4.50;;;10.30;99.90;;;;;;4821194;29;20050;-58
2023/03/18 02:25:32;;;;;;;12.60;4.22;;;10.30;99.90;;;;;;4815526;29;20399;-58
2023/03/18 02:28:02;;;;;;;13.15;3.72;;;10.30;99.90;;;;;;4806955;29;20057;-58
2023/03/18 02:30:46;;;;;;;18.33;4.35;;;10.30;99.90;;;;;;4805419;29;20904;-57
2023/03/18 02:33:17;;;;;;;12.57;3.88;;;10.30;99.90;;;;;;4814320;29;20054;-59
2023/03/18 02:35:49;;;;;;;12.10;3.33;;;10.30;99.90;;;;;;4810996;29;20051;-57
2023/03/18 02:38:18;;;;;;;13.82;3.33;;;9.20;99.90;;;;;;4801435;29;20049;-56
2023/03/18 02:40:45;;;;;;;19.10;3.72;;;10.20;99.90;;;;;;4819717;29;20050;-57
2023/03/18 02:43:31;;;;;;;11.98;3.80;;;10.30;99.90;;;;;;4822228;29;20062;-57
2023/03/18 02:46:13;;;;;;;16.98;3.83;;;10.20;99.90;;;;;;4814663;29;20042;-57
2023/03/18 02:48:44;;;;;;;12.80;3.05;;;10.20;99.90;;;;;;4808858;29;20051;-56
2023/03/18 02:51:14;;;;;;;13.45;3.90;;;10.20;99.90;;;;;;4804127;29;20055;-56
2023/03/18 02:53:43;;;;;;;13.98;3.50;;;10.20;99.90;;;;;;4815878;29;20038;-57
2023/03/18 02:56:12;;;;;;;13.60;3.40;;;10.20;99.90;;;;;;4822142;29;20061;-57
2023/03/18 02:58:41;;;;;;;13.73;3.70;;;10.20;99.90;;;;;;4807135;29;20050;-56
2023/03/18 03:01:10;;;;;;;12.23;3.15;;;10.10;99.90;;;;;;4803813;29;20066;-57
2023/03/18 03:03:39;;;;;;;11.73;3.08;;;10.10;99.90;;;;;;4820885;29;20050;-59
2023/03/18 03:06:09;;;;;;;10.88;3.10;;;10.10;99.90;;;;;;4818179;29;20042;-57
2023/03/18 03:08:38;;;;;;;15.88;3.40;;;10.10;99.90;;;;;;4818300;29;20086;-58
2023/03/18 03:11:07;;;;;;;15.98;3.05;;;10.10;99.90;;;;;;4803946;29;20530;-59
2023/03/18 03:13:39;;;;;;;16.30;3.40;;;10.10;99.90;;;;;;4805827;29;20051;-57
2023/03/18 03:16:09;;;;;;;13.98;3.08;;;10.10;99.90;;;;;;4816034;29;20063;-57
2023/03/18 03:18:37;;;;;;;16.85;3.42;;;10.00;99.90;;;;;;4818254;29;20058;-58
2023/03/18 03:21:06;;;;;;;18.77;4.88;;;10.00;99.90;;;;;;4815460;29;20057;-57
2023/03/18 03:23:37;;;;;;;11.60;3.38;;;10.10;99.90;;;;;;4803323;29;20508;-57
2023/03/18 03:26:06;;;;;;;11.85;2.70;;;10.00;99.90;;;;;;4819772;29;20058;-58
2023/03/18 03:28:41;;;;;;;11.55;3.30;;;10.00;99.90;;;;;;4815882;29;20058;-57
2023/03/18 03:31:13;;;;;;;15.30;3.58;;;10.00;99.90;;;;;;4804837;29;20053;-56
2023/03/18 03:33:42;;;;;;;9.30;3.50;;;10.00;99.90;;;;;;4803671;29;20046;-57
2023/03/18 03:36:13;;;;;;;12.77;3.38;;;10.00;99.90;;;;;;4822228;29;20047;-57
2023/03/18 03:38:42;;;;;;;9.25;3.70;;;10.00;99.90;;;;;;4803567;29;20061;-57
2023/03/18 03:41:11;;;;;;;16.70;4.43;;;10.00;99.90;;;;;;4813165;29;20540;-58
2023/03/18 03:43:40;;;;;;;;;;;10.00;99.90;;;;;;4809305;29;20053;-57
2023/03/18 03:46:09;;;;;;;11.73;3.33;;;10.00;99.90;;;;;;4822458;29;19932;-57
2023/03/18 03:48:38;;;;;;;15.77;3.58;;;9.90;99.90;;;;;;4820081;29;20050;-57
2023/03/18 03:51:10;;;;;;;15.52;4.05;;;9.90;99.90;;;;;;4821722;29;20053;-57
2023/03/18 03:53:38;;;;;;;11.35;3.83;;;9.80;99.90;;;;;;4794365;29;20057;-55
2023/03/18 03:56:07;;;;;;;18.92;4.15;;;9.80;99.90;;;;;;4819672;29;20058;-57
2023/03/18 03:58:38;;;;;;;13.18;4.13;;;9.70;99.90;;;;;;4817772;29;20546;-57
2023/03/18 04:01:07;;;;;;;10.65;3.85;;;9.70;99.90;;;;;;4797106;29;20059;-57
2023/03/18 04:03:35;;;;;;;19.65;4.13;;;9.70;99.90;;;;;;4820193;29;20050;-57
2023/03/18 04:06:07;;;;;;;9.55;3.55;;;9.70;99.90;;;;;;4806101;29;20043;-57
2023/03/18 04:08:40;;;;;;;21.13;5.18;;;9.60;99.90;;;;;;4788120;29;20385;-57
2023/03/18 04:11:08;;;;;;;14.88;4.22;;;9.60;99.90;;;;;;4805486;29;20051;-58
2023/03/18 04:13:36;;;;;;;19.13;4.93;;;9.70;99.90;;;;;;4820362;29;20050;-58
2023/03/18 04:16:05;;;;;;;18.23;3.90;;;9.70;99.90;;;;;;4810919;29;20058;-57
2023/03/18 04:18:35;;;;;;;15.63;3.85;;;9.70;99.90;;;;;;4784622;29;20412;-57
2023/03/18 04:21:10;;;;;;;15.05;3.78;;;9.70;99.90;;;;;;4813995;29;20460;-58
2023/03/18 04:23:48;;;;;;;19.55;4.43;;;9.60;99.90;;;;;;4806914;29;20403;-58
2023/03/18 04:26:16;;;;;;;10.07;4.07;;;9.70;99.90;;;;;;4821985;29;20054;-57
2023/03/18 04:28:44;;;;;;;14.52;4.13;;;9.70;99.90;;;;;;4808487;29;20043;-59
2023/03/18 04:31:15;;;;;;;21.02;6.22;;;9.70;99.90;;;;;;4821454;29;20066;-57
2023/03/18 04:33:43;;;;;;;17.55;4.35;;;9.70;99.90;;;;;;4808483;29;20384;-57
2023/03/18 04:36:11;;;;;;;16.08;4.53;;;9.70;99.90;;;;;;4826504;29;20144;-58
2023/03/18 04:38:39;;;;;;;17.05;4.72;;;9.70;99.90;;;;;;4808716;29;20047;-57
2023/03/18 04:41:07;;;;;;;20.50;4.80;;;;;;;;;;4806472;29;20047;-57
2023/03/18 04:43:35;;;;;;;17.02;4.65;;;9.60;99.90;;;;;;4814277;29;20403;-59
2023/03/18 04:46:03;;;;;;;23.15;6.57;;;9.60;99.90;;;;;;4806549;29;20086;-56
2023/03/18 04:48:32;;;;;;;21.35;4.97;;;9.50;99.90;;;;;;4817156;29;20057;-56
2023/03/18 04:51:04;;;;;;;11.23;4.35;;;9.50;99.90;;;;;;4813361;29;20054;-58
2023/03/18 04:53:34;;;;;;;16.02;6.10;;;9.50;99.90;;;;;;4806022;29;20051;-58
2023/03/18 04:56:03;;;;;;;18.75;5.00;;;9.50;99.90;;;;;;4839200;29;20495;-57
2023/03/18 04:58:40;;;;;;;20.85;4.88;;;9.50;99.90;;;;;;4819833;29;20487;-57
2023/03/18 05:01:12;;;;;;;15.77;4.57;;;9.50;99.90;;;;;;4805703;29;20054;-57
2023/03/18 05:03:40;;;;;;;21.63;4.97;;;9.50;99.90;;;;;;4805465;29;20078;-57
2023/03/18 05:06:25;;;;;;;11.30;4.53;;;9.50;99.90;;;;;;4811598;29;20070;-58
2023/03/18 05:09:13;;;;;;;23.83;5.30;;;9.60;99.90;;;;;;4809001;29;20067;-56
2023/03/18 05:11:43;;;;;;;11.88;4.32;;;9.60;99.90;;;;;;4815546;29;20043;-56
2023/03/18 05:14:21;;;;;;;25.80;4.60;;;9.60;99.90;;;;;;4806221;29;20065;-58
2023/03/18 05:16:50;;;;;;;14.75;4.00;;;9.60;99.90;;;;;;4816935;29;20057;-58
2023/03/18 05:19:18;;;;;;;13.40;3.88;;;9.60;99.90;;;;;;4806571;29;20055;-57
2023/03/18 05:21:57;;;;;;;16.15;3.92;;;9.60;99.90;;;;;;4812984;29;20081;-56
2023/03/18 05:24:26;;;;;;;16.20;4.00;;;9.60;99.90;;;;;;4823805;29;20047;-58
2023/03/18 05:26:54;;;;;;;14.55;4.45;;;9.60;99.90;;;;;;4823756;29;20062;-57
2023/03/18 05:29:26;;;;;;;23.02;4.03;;;9.60;99.90;;;;;;4820899;29;20420;-58
2023/03/18 05:32:13;;;;;;;12.65;4.22;;;9.60;99.90;;;;;;4806429;29;20054;-57
2023/03/18 05:34:42;;;;;;;9.27;3.22;;;9.60;99.90;;;;;;4816542;29;20043;-58
2023/03/18 05:37:12;;;;;;;11.18;3.28;;;9.60;99.90;;;;;;4809170;29;20392;-56
2023/03/18 05:39:45;;;;;;;9.25;3.22;;;9.60;99.90;;;;;;4792657;29;20057;-57
2023/03/18 05:42:16;;;;;;;11.13;3.03;;;9.50;99.90;;;;;;4819982;29;20051;-59
2023/03/18 05:44:45;;;;;;;12.88;3.17;;;9.60;99.90;;;;;;4825897;29;20054;-57
2023/03/18 05:47:15;;;;;;;18.13;3.28;;;9.50;99.90;;;;;;4814156;29;20058;-58
2023/03/18 05:49:55;;;;;;;12.07;4.40;;;9.60;99.90;;;;;;4802026;29;20059;-56
2023/03/18 05:52:24;;;;;;;15.63;3.13;;;10.20;99.90;;;;;;4817062;29;20043;-58
2023/03/18 05:54:55;;;;;;;13.52;3.10;;;9.50;99.90;;;;;;4807711;29;20053;-57
2023/03/18 05:57:28;;;;;;;16.42;3.25;;;9.60;99.90;;;;;;4818940;29;20050;-58
2023/03/18 06:00:01;;;;;;;14.68;3.53;;;9.50;99.90;;;;;;4820919;29;20058;-58
2023/03/18 06:02:42;;;;;;;11.35;3.75;;;9.60;99.90;;;;;;4801707;29;20050;-58
2023/03/18 06:05:11;;;;;;;23.40;3.38;;;9.60;99.90;;;;;;4809044;29;20042;-58
2023/03/18 06:07:39;;;;;;;17.00;3.40;;;;;;;;;;4813183;29;20061;-56
2023/03/18 06:10:07;;;;;;;14.70;4.03;;;9.60;99.90;;;;;;4839508;29;20065;-58
2023/03/18 06:12:35;;;;;;;28.90;5.93;;;9.60;99.90;;;;;;4827907;29;20486;-57
2023/03/18 06:15:07;;;;;;;15.10;3.63;;;9.60;99.90;;;;;;4810529;29;20495;-58
2023/03/18 06:17:37;;;;;;;11.80;3.30;;;9.60;99.90;;;;;;4809746;29;20505;-58
2023/03/18 06:20:08;;;;;;;14.57;3.60;;;9.60;99.90;;;;;;4811484;29;20447;-58
2023/03/18 06:22:37;;;;;;;12.30;3.72;;;9.60;99.90;;;;;;4805580;29;20499;-57
2023/03/18 06:25:07;;;;;;;10.93;3.42;;;9.60;99.90;;;;;;4815992;29;20042;-57
2023/03/18 06:27:37;;;;;;;13.15;3.00;;;9.60;99.90;;;;;;4819112;29;20050;-59
2023/03/18 06:30:06;;;;;;;25.40;5.00;;;9.60;99.90;;;;;;4799014;29;20089;-59
2023/03/18 06:32:37;;;;;;;15.38;3.42;;;8.90;99.90;;;;;;4812078;29;20046;-57
2023/03/18 06:35:05;;;;;;;10.63;3.03;;;9.60;99.90;;;;;;4832194;29;20046;-57
2023/03/18 06:37:33;;;;;;;14.98;4.45;;;9.60;99.90;;;;;;4820488;29;20053;-57
2023/03/18 06:40:02;;;;;;;13.20;3.30;;;9.70;99.90;;;;;;4834164;29;20057;-57
2023/03/18 06:42:33;;;;;;;14.20;3.60;;;9.70;99.90;;;;;;4826955;29;20051;-58
2023/03/18 06:45:10;;;;;;;17.42;4.13;;;9.70;99.90;;;;;;4821072;29;20112;-59
2023/03/18 06:47:45;;;;;;;17.95;4.20;;;9.70;99.90;;;;;;4831372;29;20045;-58
2023/03/18 06:50:14;;;;;;;10.70;4.00;;;9.70;99.90;;;;;;4837291;29;20046;-58
2023/03/18 06:52:42;;;;;;;15.43;4.43;;;9.70;99.90;;;;;;4830747;29;20052;-58
2023/03/18 06:55:15;;;;;;;22.65;4.53;;;9.70;99.90;;;;;;4826451;29;20059;-58
2023/03/18 06:57:46;;;;;;;17.38;4.60;;;9.70;99.90;;;;;;4828334;29;20049;-56
2023/03/18 07:00:18;;;;;;;19.25;4.75;;;9.70;99.90;;;;;;4817299;29;20054;-59
2023/03/18 07:02:45;;;;;;;16.08;4.90;;;9.70;99.90;;;;;;4812290;29;20046;-57
2023/03/18 07:05:16;;;;;;;;;;;9.80;99.90;;;;;;4827940;29;20113;-58
2023/03/18 07:07:45;;;;;;;13.05;5.28;;;9.80;99.90;;;;;;4812600;29;20410;-58
2023/03/18 07:10:27;;;;;;;14.70;4.28;;;9.80;99.90;;;;;;4800979;29;20051;-58
2023/03/18 07:13:03;;;;;;;16.70;4.97;;;9.80;99.90;;;;;;4810098;29;20061;-58
2023/03/18 07:15:31;;;;;;;12.73;4.32;;;9.80;99.90;;;;;;4807620;29;20071;-58
2023/03/18 07:18:01;;;;;;;11.95;4.63;;;9.90;99.90;;;;;;4822037;29;20050;-57
2023/03/18 07:20:31;;;;;;;12.98;3.80;;;9.90;99.90;;;;;;4800717;29;20058;-57
2023/03/18 07:23:00;;;;;;;14.70;5.00;;;9.90;99.90;;;;;;4820356;29;20045;-58
2023/03/18 07:25:29;;;;;;;13.32;4.22;;;10.00;99.90;;;;;;4830222;29;20522;-58
2023/03/18 07:28:02;;;;;;;16.75;5.35;;;10.00;99.90;;;;;;4813406;29;20038;-58
2023/03/18 07:30:30;;;;;;;14.80;4.57;;;10.10;99.90;;;;;;4785060;29;20051;-58
2023/03/18 07:32:57;;;;;;;19.02;4.95;;;10.10;99.90;;;;;;4815874;29;20051;-59
2023/03/18 07:35:27;;;;;;;21.15;5.28;;;10.20;99.90;;;;;;4816726;29;20057;-57
2023/03/18 07:37:55;;;;;;;20.00;5.65;;;10.20;99.90;;;;;;4821238;29;20097;-59
2023/03/18 07:40:23;;;;;;;14.63;5.60;;;10.20;99.90;;;;;;4835659;29;20065;-58
2023/03/18 07:42:51;;;;;;;21.73;5.40;;;10.30;99.90;;;;;;4832697;29;20049;-58
2023/03/18 07:45:19;;;;;;;16.70;4.80;;;10.30;99.90;;;;;;4806106;29;20069;-59
2023/03/18 07:47:47;;;;;;;16.25;4.85;;;10.30;99.90;;;;;;4817066;29;20049;-57
2023/03/18 07:50:15;;;;;;;16.88;4.80;;;10.40;99.90;;;;;;4810595;29;20050;-58
2023/03/18 07:52:43;;;;;;;22.38;5.80;;;10.40;99.90;;;;;;4811063;29;20609;-58
2023/03/18 07:55:11;;;;;;;11.52;4.53;;;10.40;99.90;;;;;;4804187;29;20053;-57
2023/03/18 07:57:39;;;;;;;18.52;5.75;;;;;;;;;;4824275;29;20495;-58
2023/03/18 08:00:10;;;;;;;15.07;5.15;;;10.40;99.90;;;;;;4821818;29;20050;-57
2023/03/18 08:02:41;;;;;;;20.92;6.75;;;10.40;99.90;;;;;;4819184;29;20610;-58
2023/03/18 08:05:09;;;;;;;16.10;4.30;;;10.50;99.90;;;;;;4818100;29;20073;-59
2023/03/18 08:07:38;;;;;;;14.43;5.07;;;10.50;99.90;;;;;;4820687;29;20057;-58
2023/03/18 08:10:11;;;;;;;14.50;4.45;;;10.50;99.90;;;;;;4836342;29;20402;-58
2023/03/18 08:12:40;;;;;;;9.80;5.10;;;10.50;99.90;;;;;;4826191;29;20059;-59
2023/03/18 08:15:20;;;;;;;10.98;5.30;;;10.50;99.90;;;;;;4806262;29;20051;-57
2023/03/18 08:17:49;;;;;;;14.57;6.90;;;10.50;99.90;;;;;;4824755;29;20061;-58
2023/03/18 08:20:17;;;;;;;19.60;5.25;;;10.50;99.90;;;;;;4835531;29;20069;-57
2023/03/18 08:22:45;;;;;;;13.77;6.10;;;10.60;99.90;;;;;;4808306;29;20043;-57
2023/03/18 08:25:13;;;;;;;19.98;5.72;;;10.70;99.90;;;;;;4818351;29;20051;-57
2023/03/18 08:27:41;;;;;;;13.15;5.25;;;10.70;99.90;;;;;;4824459;29;20482;-57
2023/03/18 08:30:10;;;;;;;11.68;5.35;;;10.70;99.90;;;;;;4808747;29;20061;-57
2023/03/18 08:32:38;;;;;;;17.52;5.65;;;10.80;99.90;;;;;;4814291;29;20050;-58
2023/03/18 08:35:08;;;;;;;15.32;5.82;;;10.90;99.90;;;;;;4812679;29;20061;-59
2023/03/18 08:37:36;;;;;;;14.45;6.45;;;10.90;99.90;;;;;;4808012;29;20491;-58
2023/03/18 08:40:05;;;;;;;13.77;6.25;;;11.00;99.90;;;;;;4801167;29;20066;-58
2023/03/18 08:42:33;;;;;;;13.40;6.20;;;11.10;99.90;;;;;;4810156;29;20494;-58
2023/03/18 08:45:01;;;;;;;15.75;7.07;;;11.10;99.90;;;;;;4818440;29;20042;-59
2023/03/18 08:47:28;;;;;;;15.02;6.18;;;11.20;99.90;;;;;;4810682;29;20482;-57
2023/03/18 08:49:56;;;;;;;15.52;6.18;;;11.30;99.90;;;;;;4806227;29;20058;-57
2023/03/18 08:52:24;;;;;;;11.30;6.47;;;11.40;99.90;;;;;;4809245;29;20054;-58
2023/03/18 08:54:52;;;;;;;7.47;5.20;;;11.40;99.90;;;;;;4807194;29;20069;-58
2023/03/18 08:57:19;;;;;;;12.10;5.28;;;11.40;99.90;;;;;;4816481;29;20049;-58
2023/03/18 08:59:48;;;;;;;10.52;5.35;;;11.40;99.90;;;;;;4819323;29;20227;-57
2023/03/18 09:02:17;;;;;;;10.77;5.45;;;11.40;99.90;;;;;;4821188;29;20053;-58
2023/03/18 09:04:45;;;;;;;12.68;5.45;;;11.50;99.90;;;;;;4821348;29;20518;-57
2023/03/18 09:07:13;;;;;;;18.38;6.43;;;11.60;99.90;;;;;;4820047;29;20483;-58
2023/03/18 09:09:42;;;;;;;12.43;5.20;;;11.70;99.90;;;;;;4813538;29;20047;-58
2023/03/18 09:12:12;;;;;;;9.85;4.68;;;11.80;99.90;;;;;;4817033;29;20065;-59
2023/03/18 09:14:42;;;;;;;12.20;5.95;;;11.80;99.90;;;;;;4825268;29;20053;-58
2023/03/18 09:17:10;;;;;;;8.48;4.68;;;11.90;99.90;;;;;;4822859;29;20407;-58
2023/03/18 09:19:38;;;;;;;13.63;5.45;;;12.10;99.90;;;;;;4840410;29;20054;-58
2023/03/18 09:22:07;;;;;;;11.55;5.05;;;12.10;99.90;;;;;;4817858;29;20042;-58
2023/03/18 09:24:35;;;;;;;12.40;4.50;;;12.20;99.90;;;;;;4822095;29;20055;-57
2023/03/18 09:27:03;;;;;;;10.73;3.90;;;12.30;99.90;;;;;;4819259;29;20054;-59
2023/03/18 09:29:32;;;;;;;7.23;4.07;;;12.40;99.90;;;;;;4821304;29;20483;-58
2023/03/18 09:32:00;;;;;;;7.65;2.80;;;12.40;99.90;;;;;;4815643;29;20039;-58
2023/03/18 09:34:27;;;;;;;5.55;2.83;;;12.30;99.90;;;;;;4815628;29;20046;-58
2023/03/18 09:36:57;;;;;;;13.20;3.33;;;12.30;99.90;;;;;;4819501;29;20510;-59
2023/03/18 09:39:24;;;;;;;6.75;2.42;;;12.30;99.90;;;;;;4822773;29;20054;-58
2023/03/18 09:42:04;;;;;;;8.85;2.67;;;12.20;99.90;;;;;;4821423;29;20057;-57
2023/03/18 09:44:34;;;;;;;9.18;3.05;;;12.10;99.90;;;;;;4803594;29;20061;-56
2023/03/18 09:47:41;;;;;;;12.80;2.10;;;12.10;99.90;;;;;;4821486;29;20244;-58
2023/03/18 09:50:26;;;;;;;6.53;1.92;;;12.00;99.90;;;;;;4812111;29;20070;-58
2023/03/18 09:53:04;;;;;;;6.88;2.10;;;12.10;99.90;;;;;;4822955;29;20061;-57
2023/03/18 09:55:41;;;;;;;11.15;2.25;;;12.20;99.90;;;;;;4817395;29;20062;-58
2023/03/18 09:58:23;;;;;;;8.48;1.88;;;12.20;99.90;;;;;;4820251;29;20051;-59
2023/03/18 10:00:58;;;;;;;4.13;1.85;;;12.40;99.90;;;;;;4819015;29;20066;-59
2023/03/18 10:03:37;;;;;;;5.25;1.67;;;12.70;99.90;;;;;;4828689;29;20053;-59
2023/03/18 10:06:18;;;;;;;5.18;1.77;;;12.60;99.90;;;;;;4838294;29;20049;-57
2023/03/18 10:08:52;;;;;;;5.63;1.67;;;12.80;99.90;;;;;;4816994;29;20411;-59
2023/03/18 10:11:41;;;;;;;4.35;1.45;;;12.90;99.90;;;;;;4818595;29;20077;-59
2023/03/18 10:14:18;;;;;;;5.90;1.40;;;13.00;99.90;;;;;;4835737;29;20508;-58
2023/03/18 10:16:54;;;;;;;4.95;1.45;;;13.00;99.90;;;;;;4826390;29;20063;-57
2023/03/18 10:19:22;;;;;;;7.53;1.80;;;13.00;99.90;;;;;;4821432;29;20051;-59
2023/03/18 10:22:22;;;;;;;4.30;1.40;;;13.00;99.90;;;;;;4816649;29;20054;-59
2023/03/18 10:25:08;;;;;;;8.02;1.90;;;13.00;99.90;;;;;;4815516;29;20055;-58
2023/03/18 10:27:48;;;;;;;12.43;4.00;;;12.90;99.90;;;;;;4814047;29;20038;-58
2023/03/18 10:30:35;;;;;;;6.75;2.80;;;12.90;99.90;;;;;;4819566;29;20058;-58
2023/03/18 10:33:16;;;;;;;8.52;3.13;;;12.80;99.90;;;;;;4823266;29;20061;-59
2023/03/18 10:35:53;;;;;;;12.13;3.08;;;12.70;99.90;;;;;;4802354;29;20042;-58
2023/03/18 10:38:29;;;;;;;9.27;2.88;;;12.70;99.90;;;;;;4818588;29;20047;-59
2023/03/18 10:40:57;;;;;;;4.50;2.10;;;12.70;99.90;;;;;;4816612;29;20058;-57
2023/03/18 10:43:30;;;;;;;12.32;2.38;;;12.70;99.90;;;;;;4813668;29;20384;-58
2023/03/18 10:46:11;;;;;;;6.00;1.80;;;12.70;99.90;;;;;;4803533;29;20061;-59
2023/03/18 10:48:54;;;;;;;4.93;1.20;;;12.80;99.90;;;;;;4809374;29;20480;-58
2023/03/18 10:51:30;;;;;;;5.45;1.88;;;12.90;99.90;;;;;;4808406;29;20058;-58
2023/03/18 10:54:14;;;;;;;5.55;1.30;;;12.90;99.90;;;;;;4814877;29;20061;-58
2023/03/18 10:56:42;;;;;;;4.35;1.42;;;13.00;99.90;;;;;;4819009;29;20484;-58
2023/03/18 10:59:14;;;;;;;6.88;1.73;;;13.10;99.90;;;;;;4822207;29;20050;-59
2023/03/18 11:01:48;;;;;;;6.22;1.58;;;13.20;99.90;;;;;;4808791;29;20054;-58
2023/03/18 11:04:20;;;;;;;7.57;1.60;;;13.20;99.90;;;;;;4827524;29;20057;-58
2023/03/18 11:06:54;;;;;;;4.32;1.00;;;13.50;99.90;;;;;;4816930;29;20050;-58
2023/03/18 11:09:32;;;;;;;5.55;1.63;;;13.50;99.90;;;;;;4821942;29;20050;-58
2023/03/18 11:12:17;;;;;;;7.72;1.80;;;13.60;99.90;;;;;;4807621;29;20515;-58
2023/03/18 11:14:48;;;;;;;2.50;1.50;;;13.80;99.90;;;;;;4804060;29;20049;-60
2023/03/18 11:17:32;;;;;;;3.78;1.58;;;14.00;99.90;;;;;;4806191;29;20059;-58
2023/03/18 11:20:09;;;;;;;5.28;1.73;;;14.20;99.90;;;;;;4810078;29;20525;-59
2023/03/18 11:22:43;;;;;;;5.10;1.60;;;14.30;99.90;;;;;;4801633;29;20057;-58
2023/03/18 11:25:22;;;;;;;5.55;1.30;;;14.40;99.90;;;;;;4804343;29;20408;-59
2023/03/18 11:28:11;;;;;;;4.22;1.50;;;14.50;99.90;;;;;;4806733;29;20050;-62
2023/03/18 11:30:55;;;;;;;5.28;1.45;;;16.90;99.90;;;;;;4803451;29;20050;-61
2023/03/18 11:33:26;;;;;;;3.55;1.00;;;14.60;99.90;;;;;;4803501;29;20507;-59
2023/03/18 11:35:57;;;;;;;5.38;0.82;;;14.60;99.90;;;;;;4801728;29;20046;-59
2023/03/18 11:38:36;;;;;;;1.58;0.80;;;14.70;99.90;;;;;;4804812;29;20050;-59
2023/03/18 11:41:08;;;;;;;5.35;1.10;;;14.90;99.90;;;;;;4811057;29;20055;-59
2023/03/18 11:43:52;;;;;;;4.47;0.95;;;15.00;99.90;;;;;;4815367;29;20043;-59
2023/03/18 11:46:23;;;;;;;4.72;0.85;;;15.10;99.90;;;;;;4809313;29;20054;-60
2023/03/18 11:48:51;;;;;;;4.25;0.80;;;15.30;99.90;;;;;;4832080;29;20061;-59
2023/03/18 11:51:38;;;;;;;5.72;0.98;;;15.40;99.90;;;;;;4817596;29;20054;-60
2023/03/18 11:54:13;;;;;;;4.53;1.35;;;15.30;99.90;;;;;;4807539;29;20058;-59
2023/03/18 11:56:53;;;;;;;1.70;0.95;;;15.20;99.90;;;;;;4801656;29;20050;-60
2023/03/18 11:59:50;;;;;;;7.90;0.98;;;15.20;99.90;;;;;;4807010;29;20059;-59
2023/03/18 12:02:41;;;;;;;3.65;0.88;;;15.20;99.90;;;;;;4804514;29;20062;-60
2023/03/18 12:05:36;;;;;;;2.95;0.88;;;15.10;99.90;;;;;;4814500;29;20053;-60
2023/03/18 12:08:12;;;;;;;4.00;0.73;;;15.10;99.90;;;;;;4828108;29;20601;-59
2023/03/18 12:10:47;;;;;;;2.03;0.35;;;15.10;99.90;;;;;;4835266;29;20054;-59
2023/03/18 12:13:20;;;;;;;2.58;0.68;;;15.10;99.90;;;;;;4809900;29;20070;-58
2023/03/18 12:15:53;;;;;;;5.25;0.70;;;15.10;99.90;;;;;;4800901;29;20058;-59
2023/03/18 12:19:07;;;;;;;2.90;0.60;;;15.00;99.90;;;;;;4822661;29;20490;-60
2023/03/18 12:21:54;;;;;;;4.80;0.90;;;15.10;99.90;;;;;;4827658;29;20558;-59
2023/03/18 12:24:37;;;;;;;2.40;0.57;;;15.30;99.90;;;;;;4818154;29;20050;-59
2023/03/18 12:27:47;;;;;;;3.15;0.77;;;15.40;99.90;;;;;;4818556;29;20073;-58
2023/03/18 12:30:44;;;;;;;5.20;0.82;;;15.40;99.90;;;;;;4801156;29;20058;-59
2023/03/18 12:33:27;;;;;;;2.60;0.60;;;15.30;99.90;;;;;;4817911;29;20050;-58
2023/03/18 12:36:18;;;;;;;3.72;0.65;;;15.20;99.90;;;;;;4834794;29;20054;-59
2023/03/18 12:39:25;;;;;;;4.03;1.52;;;15.40;99.90;;;;;;4837568;29;20050;-60
2023/03/18 12:42:01;;;;;;;2.30;0.80;;;15.60;99.90;;;;;;4811492;29;20058;-60
2023/03/18 12:44:45;;;;;;;2.33;0.95;;;15.80;99.90;;;;;;4816292;29;20054;-60
2023/03/18 12:47:22;;;;;;;3.40;0.60;;;15.80;99.90;;;;;;4805121;29;20411;-59
2023/03/18 12:49:57;;;;;;;4.88;0.65;;;15.70;99.90;;;;;;4823387;29;20073;-59
2023/03/18 12:52:30;;;;;;;1.90;0.60;;;15.70;99.90;;;;;;4823155;29;20054;-59
2023/03/18 12:55:26;;;;;;;5.28;0.85;;;15.70;99.90;;;;;;4839015;29;20051;-59
2023/03/18 12:58:16;;;;;;;3.22;0.70;;;15.90;99.90;;;;;;4838915;29;20558;-59
2023/03/18 13:01:05;;;;;;;2.03;0.50;;;16.40;99.90;;;;;;4816253;29;20061;-61
2023/03/18 13:03:39;;;;;;;1.57;1.03;;;17.10;99.90;;;;;;4817236;29;20054;-60
2023/03/18 13:06:25;;;;;;;2.70;0.60;;;17.40;99.90;;;;;;4840618;29;20061;-62
2023/03/18 13:09:17;;;;;;;2.35;0.75;;;18.00;99.90;;;;;;4840616;29;20089;-59
2023/03/18 13:12:26;;;;;;;1.60;0.70;;;18.30;99.90;;;;;;4804397;29;20050;-60
2023/03/18 13:14:59;;;;;;;2.95;0.60;;;18.50;99.90;;;;;;4803555;29;20050;-60
2023/03/18 13:17:43;;;;;;;2.88;0.80;;;18.50;99.90;;;;;;4816855;29;20065;-60